Station: Kangaroo Flats (Defence)  

  Atmospheric Gas Attenuation - ITU Rec 676-11   ----------------- dB/100km -----------------
Date Time Temp RH % AH g/m3 Dew Point Wind Direction Speed kph Gust kph Barometer mB Rainfall Since 9am 24GHz 47GHz 76GHz 122GHz 134GHz 241GHz
03/09 08:50 26.9 70 17.92 21 7 13 1013.1 0 38.5 37.2 70.4 186.1 203.1 705.6
03/09 08:40 26.4 72 17.92 20.9 6 11 1013.1 0 38.5 37.4 70.8 187.3 204.5 710.2
03/09 08:30 26 74 18.02 21 2 4 1013.1 0 38.8 37.7 71.7 189.5 207.0 719.1
03/09 08:20 25.6 75 17.86 20.8 2 6 1013.1 0 38.5 37.6 71.3 188.5 205.7 714.6
03/09 08:10 24.6 79 17.78 20.7 4 6 1013.1 0 38.4 37.9 71.9 190.1 207.3 719.9
03/09 08:00 23.5 83 17.55 20.4 4 6 1013.1 0 38.0 38.0 71.8 190.0 206.9 718.2
03/09 07:50 23.1 84 17.36 20.2 2 6 1013.1 0 37.7 37.8 71.3 188.6 205.1 711.9
03/09 07:40 22.7 85 17.17 20 0 6 1013.1 0 37.3 37.7 70.8 187.2 203.3 705.6
03/09 07:30 22.6 85 17.07 19.9 4 6 1013.1 0 37.1 37.5 70.5 186.3 202.0 701.2
03/09 07:20 22.4 85 16.88 19.8 4 6 1013.1 0 36.7 37.2 69.8 184.4 199.7 693.0
03/09 07:10 22.4 85 16.88 19.8 6 9 1013.1 0 36.7 37.2 69.8 184.4 199.7 693.0
03/09 07:00 22.3 85 16.78 19.7 6 11 1013.1 0 36.5 37.1 69.4 183.4 198.4 688.7
03/09 06:50 22.3 86 16.98 19.8 6 9 1013.1 0 36.9 37.5 70.3 185.9 201.5 699.2
03/09 06:40 22.2 87 17.08 19.9 6 9 1013.1 0 37.1 37.7 70.9 187.4 203.3 705.5
03/09 06:30 22.1 88 17.18 20 6 11 1013.1 0 37.4 37.9 71.4 188.9 205.1 711.7
03/09 06:20 21.6 88 16.69 19.5 0 2 1013.1 0 36.4 37.2 69.6 184.0 198.9 690.3
03/09 06:10 21.6 88 16.69 19.5 0 0 1013.1 0 36.4 37.2 69.6 184.0 198.9 690.3
03/09 06:00 21.4 89 16.68 19.5 0 2 1013.1 0 36.4 37.3 69.7 184.3 199.3 691.6
03/09 05:50 21.4 89 16.68 19.5 0 0 1013.1 0 36.4 37.3 69.7 184.3 199.3 691.6
03/09 05:40 21.2 89 16.49 19.3 0 0 1013.1 0 36.0 37.0 69.0 182.5 196.9 683.3
03/09 05:30 21.5 87 16.4 19.2 0 2 1013.1 0 35.8 36.7 68.3 180.6 194.8 675.8
03/09 05:20 21.8 86 16.5 19.4 2 6 1013.1 0 35.9 36.8 68.5 181.1 195.5 678.4
03/09 05:10 21.5 86 16.22 19.1 2 4 1013.1 0 35.4 36.4 67.5 178.4 192.0 666.3
03/09 05:00 21.6 85 16.12 19 0 0 1013.1 0 35.1 36.2 67.0 176.9 190.3 660.2
03/09 04:50 21.7 84 16.02 19 0 0 1013.1 0 34.9 36.0 66.4 175.5 188.5 654.1
03/09 04:40 21.8 85 16.31 19.2 2 4 1013.1 0 35.5 36.4 67.7 178.8 192.6 668.4
03/09 04:30 21.8 84 16.11 19 2 4 1013.1 0 35.1 36.1 66.7 176.4 189.6 657.9
03/09 04:20 21.9 83 16.02 18.9 2 4 1013.1 0 34.9 35.9 66.2 175.0 188.0 652.4
03/09 04:10 22 82 15.91 18.9 0 0 1013.1 0 34.7 35.6 65.7 173.5 186.1 645.8
03/09 04:00 22.5 81 16.18 19.1 0 0 1013.1 0 35.2 35.9 66.5 175.6 188.9 655.5
03/09 03:50 22.6 79 15.87 18.9 0 0 1013.1 0 34.5 35.3 65.0 171.6 184.1 638.7
03/09 03:40 22.5 81 16.18 19.1 2 4 1013.1 0 35.2 35.9 66.5 175.6 188.9 655.5
03/09 03:30 22.4 81 16.09 19 2 4 1013.1 0 35.0 35.8 66.1 174.7 187.8 651.7
03/09 03:20 22.1 85 16.59 19.5 0 2 1013.1 0 36.1 36.8 68.7 181.5 196.1 680.4
03/09 03:10 22 85 16.5 19.4 0 0 1013.1 0 35.9 36.7 68.4 180.7 195.0 676.6
03/09 03:00 22.1 85 16.59 19.5 0 0 1013.1 0 36.1 36.8 68.7 181.5 196.1 680.4
03/09 02:50 22.2 84 16.49 19.4 0 0 1013.1 0 35.9 36.6 68.1 180.1 194.3 674.3
03/09 02:40 22.6 82 16.47 19.5 0 0 1013.1 0 35.8 36.4 67.7 178.9 193.0 669.7
03/09 02:30 22.5 84 16.78 19.7 0 0 1013.1 0 36.5 37.0 69.2 182.9 197.9 686.8
03/09 02:20 22.5 82 16.38 19.4 0 0 1013.1 0 35.6 36.3 67.4 178.0 191.9 665.9
03/09 02:10 22.8 83 16.86 19.7 0 0 1013.1 0 36.6 37.0 69.3 183.2 198.3 688.3
03/09 02:00 22.9 82 16.76 19.7 0 0 1013.1 0 36.4 36.8 68.7 181.7 196.5 682.2
03/09 01:50 23 82 16.85 19.8 0 0 1013.1 0 36.6 36.9 69.1 182.6 197.6 686.0
03/09 01:40 23.4 80 16.82 19.8 2 4 1013.1 0 36.5 36.7 68.6 181.3 196.1 680.8
03/09 01:30 23.5 81 17.13 20 2 6 1013.1 0 37.1 37.2 69.9 184.8 200.5 696.1
03/09 01:20 23.3 82 17.14 20.1 0 4 1013.1 0 37.2 37.3 70.1 185.4 201.2 698.5
03/09 01:10 23.1 79 16.33 19.4 0 0 1013.1 0 35.5 35.9 66.6 176.0 189.6 658.1
03/09 01:00 23.2 76 15.8 18.7 0 2 1013.1 0 34.3 34.9 64.1 169.5 181.6 630.2
03/09 00:50 23.8 79 16.99 19.9 4 4 1013.1 0 36.8 36.8 69.0 182.4 197.6 686.1
03/09 00:40 23.1 77 15.92 18.8 2 6 1013.1 0 34.6 35.2 64.8 171.1 183.6 637.1
03/09 00:30 23.4 76 15.98 18.9 0 6 1013.1 0 34.7 35.2 64.8 171.2 183.7 637.7
03/09 00:20 23.2 75 15.59 18.5 0 0 1013.1 0 33.9 34.6 63.2 167.0 178.5 619.6
03/09 00:10 23.2 75 15.59 18.5 0 0 1013.1 0 33.9 34.6 63.2 167.0 178.5 619.6
03/09 00:00 23.6 73 15.53 18.5 0 0 1013.1 0 33.7 34.3 62.6 165.4 176.7 613.3
02/09 23:50 23.6 73 15.53 18.5 0 0 1013.1 0 33.7 34.3 62.6 165.4 176.7 613.3
02/09 23:40 23.7 72 15.4 18.5 0 0 1013.1 0 33.4 34.0 62.0 163.7 174.6 606.0
02/09 23:30 23.8 73 15.7 18.7 0 0 1013.1 0 34.1 34.5 63.2 167.0 178.7 620.2
02/09 23:20 23.6 72 15.31 18.4 0 0 1013.1 0 33.3 33.9 61.7 162.9 173.6 602.4
02/09 23:10 23.6 72 15.31 18.4 0 0 1013.1 0 33.3 33.9 61.7 162.9 173.6 602.4
02/09 23:00 24.2 71 15.62 18.6 2 6 1013.1 0 33.9 34.2 62.5 165.2 176.6 613.0
02/09 22:50 24 73 15.88 18.9 2 6 1013.1 0 34.4 34.7 63.8 168.7 180.8 627.7
02/09 22:40 23.7 72 15.4 18.5 0 0 1013.1 0 33.4 34.0 62.0 163.7 174.6 606.0
02/09 22:30 23.6 73 15.53 18.5 0 4 1013.1 0 33.7 34.3 62.6 165.4 176.7 613.3
02/09 22:20 23.9 72 15.58 18.5 0 0 1013.1 0 33.8 34.3 62.6 165.4 176.8 613.4
02/09 22:10 24.3 71 15.71 18.7 0 0 1013.1 0 34.0 34.3 62.8 166.0 177.7 616.7
02/09 22:00 24.2 71 15.62 18.6 0 0 1013.1 0 33.9 34.2 62.5 165.2 176.6 613.0
02/09 21:50 24.4 69 15.36 18.3 0 0 1013.1 0 33.3 33.7 61.2 161.8 172.5 598.6
02/09 21:40 24.9 67 15.34 18.5 0 0 1013.1 0 33.2 33.4 60.8 160.5 171.1 593.8
02/09 21:30 25 66 15.19 18.4 0 0 1013.1 0 32.9 33.1 60.0 158.6 168.8 585.7
02/09 21:20 25.4 65 15.3 18.5 0 0 1013.1 0 33.1 33.2 60.2 159.0 169.4 588.0
02/09 21:10 25.7 65 15.56 18.6 2 2 1013.1 0 33.6 33.5 61.1 161.3 172.4 598.3
02/09 21:00 26 64 15.58 18.7 2 4 1013.1 0 33.6 33.4 60.9 160.9 172.0 597.0
02/09 20:50 26.1 63 15.42 18.5 2 2 1013.1 0 33.3 33.1 60.2 158.9 169.5 588.5
02/09 20:40 26.2 63 15.51 18.6 2 4 1013.1 0 33.5 33.2 60.5 159.7 170.5 592.1
02/09 20:30 26.4 62 15.43 18.5 4 6 1013.1 0 33.3 33.0 60.0 158.4 169.0 586.7
02/09 20:20 26.6 61 15.36 18.5 4 7 1013.1 0 33.1 32.8 59.5 157.2 167.6 581.8
02/09 20:10 26.7 61 15.44 18.6 4 9 1013.1 0 33.3 32.9 59.8 157.9 168.5 584.9
02/09 20:00 26.9 60 15.36 18.5 6 9 1013.1 0 33.1 32.7 59.3 156.6 166.9 579.6
02/09 19:50 27 59 15.19 18.3 6 9 1013.1 0 32.7 32.4 58.5 154.6 164.4 570.8
02/09 19:40 27.2 58 15.09 18.2 4 11 1013.1 0 32.5 32.2 58.0 153.1 162.6 564.6
02/09 19:30 27.3 58 15.18 18.3 6 9 1013.1 0 32.7 32.3 58.3 153.9 163.6 568.1
02/09 19:20 27.5 58 15.35 18.5 6 9 1013.1 0 33.0 32.5 58.8 155.3 165.5 574.7
02/09 19:10 27.6 58 15.43 18.6 7 13 1013.1 0 33.2 32.6 59.1 156.0 166.4 577.7
02/09 19:00 27.8 59 15.87 19.1 7 19 1013.1 0 34.1 33.2 60.7 160.5 171.9 597.1
02/09 18:50 27.9 59 15.96 19.1 9 17 1013.1 0 34.3 33.3 61.0 161.3 172.9 600.6
02/09 18:40 28.5 58 16.21 19.4 9 17 1013.1 0 34.7 33.5 61.6 162.8 175.0 607.8
02/09 18:30 29.2 54 15.68 18.9 9 17 1013.1 0 33.6 32.4 58.9 155.6 166.3 577.6
02/09 18:20 30 50 15.17 18.4 7 11 1013.1 0 32.4 31.3 56.3 148.6 157.9 548.5
02/09 18:10 30.6 47 14.72 18 7 11 1013.1 0 31.5 30.3 54.1 142.8 150.9 524.2
02/09 18:00 31.6 42 13.88 17.1 6 11 1013.1 0 29.6 28.7 50.2 132.5 138.6 481.2
02/09 17:50 32.8 27 9.51 11.3 6 11 1013.1 0 20.6 22.2 34.4 90.4 87.1 301.1
02/09 17:40 32.9 26 9.21 10.9 4 7 1013.1 0 20.0 21.8 33.4 87.7 83.8 289.7
02/09 17:30 32.7 27 9.46 11.3 6 9 1013.1 0 20.5 22.2 34.3 90.1 86.7 299.6
02/09 17:20 33 26 9.26 10.9 6 17 1013.1 0 20.1 21.9 33.5 88.0 84.3 291.2
02/09 17:10 33.1 27 9.67 11.6 6 15 1013.1 0 20.9 22.4 34.8 91.4 88.5 305.9
02/09 17:00 33.1 27 9.67 11.6 7 15 1013.1 0 20.9 22.4 34.8 91.4 88.5 305.9
02/09 16:50 33.3 28 10.13 12.3 4 7 1013.1 0 21.8 22.9 36.2 95.2 93.1 322.3
02/09 16:40 33 28 9.97 12.1 4 9 1013.1 0 21.5 22.8 35.8 94.1 91.8 317.5
02/09 16:30 32.4 28 9.66 11.6 6 11 1013.1 0 20.9 22.5 35.1 92.1 89.1 308.1
02/09 16:20 32.5 29 10.06 12.2 7 15 1013.1 0 21.7 23.0 36.3 95.5 93.3 322.8

Last Refresh: 03-Sep-2026 09:01:53

Bureau of Meteorology